Time;durP1;ratioP1;P1;durP2;ratioP2;P2;SDS_P1;SDS_P2;PMS_P1;PMS_P2;Temp;Humidity;BMP_temperature;BMP_pressure;BME280_temperature;BME280_humidity;BME280_pressure;Samples;Min_cycle;Max_cycle;Signal;HPM_P1;HPM_P2
2023/11/05 00:01:45;;;;;;;702.38;397.42;;;;;;;;;;5017226;28;20034;-56
2023/11/05 00:04:11;;;;;;;947.72;429.70;;;;;;;;;;5013781;28;20024;-56
2023/11/05 00:06:36;;;;;;;772.10;412.45;;;;;;;;;;5016921;28;20414;-58
2023/11/05 00:09:01;;;;;;;789.78;437.88;;;;;;;;;;5016650;28;20033;-56
2023/11/05 00:11:27;;;;;;;734.17;425.83;;;;;;;;;;5018203;28;20034;-56
2023/11/05 00:13:52;;;;;;;700.28;405.60;;;;;;;;;;5017532;28;20260;-56
2023/11/05 00:16:17;;;;;;;733.47;421.75;;;;;;;;;;5016078;28;20037;-55
2023/11/05 00:18:43;;;;;;;724.55;436.70;;;;;;;;;;5017360;28;20528;-54
2023/11/05 00:21:08;;;;;;;922.00;463.70;;;;;;;;;;5016606;28;20125;-55
2023/11/05 00:23:33;;;;;;;743.20;466.38;;;;;;;;;;5019142;28;20033;-55
2023/11/05 00:25:59;;;;;;;831.05;475.38;;;;;;;;;;5016905;28;20049;-55
2023/11/05 00:28:24;;;;;;;757.38;451.42;;;;;;;;;;5017572;28;20440;-55
2023/11/05 00:30:49;;;;;;;728.17;460.15;;;;;;;;;;5017638;28;20045;-55
2023/11/05 00:33:15;;;;;;;704.45;408.85;;;;;;;;;;5015616;28;20028;-55
2023/11/05 00:35:44;;;;;;;717.08;415.05;;;;;;;;;;5017281;28;20046;-55
2023/11/05 00:38:09;;;;;;;789.70;409.63;;;;;;;;;;5016190;28;20025;-55
2023/11/05 00:40:34;;;;;;;687.70;403.17;;;;;;;;;;5017589;28;20048;-55
2023/11/05 00:42:59;;;;;;;748.05;375.02;;;;;;;;;;5016403;28;20436;-55
2023/11/05 00:45:25;;;;;;;750.22;410.67;;;;;;;;;;5016594;28;20111;-55
2023/11/05 00:47:50;;;;;;;642.45;376.30;;;;;;;;;;5016988;28;20317;-55
2023/11/05 00:50:15;;;;;;;734.38;397.35;;;;;;;;;;5015354;28;20025;-55
2023/11/05 00:52:41;;;;;;;719.22;393.67;;;;;;;;;;5018269;28;20477;-55
2023/11/05 00:55:06;;;;;;;827.85;431.85;;;;;;;;;;5014831;28;20582;-55
2023/11/05 00:57:32;;;;;;;678.15;417.52;;;;;;;;;;5015994;28;20299;-55
2023/11/05 00:59:58;;;;;;;702.67;343.25;;;;;;;;;;5015663;28;20095;-55
2023/11/05 01:02:23;;;;;;;676.88;351.38;;;;;;;;;;5016525;28;20106;-55
2023/11/05 01:04:48;;;;;;;680.50;365.08;;;;;;;;;;5017185;28;20022;-55
2023/11/05 01:07:13;;;;;;;798.30;371.65;;;;;;;;;;5013718;28;20075;-55
2023/11/05 01:09:39;;;;;;;696.92;393.92;;;;;;;;;;5017070;28;20102;-55
2023/11/05 01:12:04;;;;;;;774.10;400.60;;;;;;;;;;5015096;28;20200;-55
2023/11/05 01:14:29;;;;;;;716.90;395.40;;;;;;;;;;5018269;28;20147;-55
2023/11/05 01:16:55;;;;;;;743.70;398.73;;;;;;;;;;5016906;28;20048;-55
2023/11/05 01:19:20;;;;;;;663.53;374.37;;;;;;;;;;5016291;28;20087;-54
2023/11/05 01:21:46;;;;;;;699.25;384.92;;;;;;;;;;5015229;28;20546;-55
2023/11/05 01:24:11;;;;;;;842.08;368.02;;;;;;;;;;5016081;28;20382;-55
2023/11/05 01:26:36;;;;;;;738.35;379.25;;;;;;;;;;5016602;28;20127;-55
2023/11/05 01:29:02;;;;;;;718.90;380.35;;;;;;;;;;5014557;28;20025;-55
2023/11/05 01:31:27;;;;;;;706.88;378.00;;;;;;;;;;5017602;28;20056;-55
2023/11/05 01:33:53;;;;;;;721.10;371.35;;;;;;;;;;5017341;28;20033;-55
2023/11/05 01:36:18;;;;;;;661.90;351.83;;;;;;;;;;5014833;28;20414;-55
2023/11/05 01:38:43;;;;;;;685.50;349.42;;;;;;;;;;5017563;28;20438;-55
2023/11/05 01:41:09;;;;;;;858.78;369.73;;;;;;;;;;5013474;28;20046;-55
2023/11/05 01:43:34;;;;;;;635.05;355.58;;;;;;;;;;5017919;28;20262;-55
2023/11/05 01:46:00;;;;;;;648.50;357.50;;;;;;;;;;5015128;28;20064;-54
2023/11/05 01:48:26;;;;;;;714.65;369.35;;;;;;;;;;5016269;28;20078;-58
2023/11/05 01:50:52;;;;;;;673.63;336.25;;;;;;;;;;5016302;28;20038;-55
2023/11/05 01:53:17;;;;;;;681.20;341.48;;;;;;;;;;5016296;28;21379;-55
2023/11/05 01:55:43;;;;;;;682.50;338.52;;;;;;;;;;5015511;28;20034;-55
2023/11/05 01:58:09;;;;;;;816.17;342.55;;;;;;;;;;5015675;28;20040;-55
2023/11/05 02:00:35;;;;;;;626.45;316.98;;;;;;;;;;5015580;28;20098;-55
2023/11/05 02:03:00;;;;;;;689.30;337.98;;;;;;;;;;5014917;28;20033;-55
2023/11/05 02:05:26;;;;;;;677.60;356.73;;;;;;;;;;5014569;28;20272;-54
2023/11/05 02:07:51;;;;;;;661.45;352.67;;;;;;;;;;5016416;28;20033;-55
2023/11/05 02:10:16;;;;;;;728.05;367.60;;;;;;;;;;5015159;28;20034;-55
2023/11/05 02:13:11;;;;;;;725.90;366.27;;;;;;;;;;5017790;28;20029;-55
2023/11/05 02:15:36;;;;;;;733.08;373.17;;;;;;;;;;5014281;28;20048;-55
2023/11/05 02:18:01;;;;;;;721.83;389.25;;;;;;;;;;5015305;28;20033;-55
2023/11/05 02:20:26;;;;;;;701.58;357.17;;;;;;;;;;5008363;28;20065;-55
2023/11/05 02:22:53;;;;;;;659.92;338.55;;;;;;;;;;5017520;28;20026;-54
2023/11/05 02:25:19;;;;;;;663.45;348.52;;;;;;;;;;5014649;28;22149;-56
2023/11/05 02:27:50;;;;;;;709.85;382.77;;;;;;;;;;5015924;28;20032;-55
2023/11/05 02:30:16;;;;;;;802.15;384.10;;;;;;;;;;5014294;28;20037;-55
2023/11/05 02:32:42;;;;;;;683.10;362.88;;;;;;;;;;5017236;28;20044;-56
2023/11/05 02:35:07;;;;;;;796.83;375.70;;;;;;;;;;5015026;28;20032;-56
2023/11/05 02:37:33;;;;;;;707.65;398.40;;;;;;;;;;5016296;28;20092;-55
2023/11/05 02:39:58;;;;;;;756.03;394.02;;;;;;;;;;5015999;28;20448;-55
2023/11/05 02:42:23;;;;;;;731.13;395.25;;;;;;;;;;5019292;28;20091;-55
2023/11/05 02:44:49;;;;;;;711.50;398.23;;;;;;;;;;5023847;28;20017;-55
2023/11/05 02:47:15;;;;;;;728.67;414.83;;;;;;;;;;5021324;28;20029;-55
2023/11/05 02:49:41;;;;;;;699.10;405.45;;;;;;;;;;5022894;28;20029;-55
2023/11/05 02:52:06;;;;;;;825.22;411.27;;;;;;;;;;5022555;28;20490;-55
2023/11/05 02:54:33;;;;;;;693.60;411.25;;;;;;;;;;5022581;28;20030;-55
2023/11/05 02:56:59;;;;;;;717.75;418.55;;;;;;;;;;5020161;28;20049;-55
2023/11/05 02:59:26;;;;;;;744.10;432.38;;;;;;;;;;5021694;28;20037;-55
2023/11/05 03:01:51;;;;;;;714.05;431.15;;;;;;;;;;5022698;28;20037;-54
2023/11/05 03:04:18;;;;;;;857.00;447.00;;;;;;;;;;5021843;28;20390;-55
2023/11/05 03:06:45;;;;;;;973.03;520.65;;;;;;;;;;5020722;28;20029;-55
2023/11/05 03:09:10;;;;;;;925.47;465.40;;;;;;;;;;5021043;28;20036;-55
2023/11/05 03:11:36;;;;;;;652.47;362.77;;;;;;;;;;5023475;28;20034;-55
2023/11/05 03:14:01;;;;;;;737.95;409.30;;;;;;;;;;5023333;28;20124;-55
2023/11/05 03:16:26;;;;;;;746.03;413.42;;;;;;;;;;5023348;28;20047;-55
2023/11/05 03:18:51;;;;;;;674.83;408.30;;;;;;;;;;5023302;28;20135;-55
2023/11/05 03:21:17;;;;;;;799.17;428.65;;;;;;;;;;5021562;28;20276;-55
2023/11/05 03:23:42;;;;;;;678.00;418.27;;;;;;;;;;5022946;28;20010;-56
2023/11/05 03:26:07;;;;;;;776.22;402.33;;;;;;;;;;5022715;28;20034;-56
2023/11/05 03:28:33;;;;;;;692.92;349.52;;;;;;;;;;5020050;28;20033;-55
2023/11/05 03:30:58;;;;;;;636.10;305.80;;;;;;;;;;5022935;28;20138;-55
2023/11/05 03:33:24;;;;;;;680.23;330.43;;;;;;;;;;5022539;28;20044;-55
2023/11/05 03:35:50;;;;;;;662.42;340.77;;;;;;;;;;5022968;28;20263;-55
2023/11/05 03:38:15;;;;;;;695.10;348.70;;;;;;;;;;5022682;28;20018;-55
2023/11/05 03:40:40;;;;;;;705.85;358.48;;;;;;;;;;5021120;28;20056;-55
2023/11/05 03:43:06;;;;;;;712.80;317.73;;;;;;;;;;5022572;28;20437;-55
2023/11/05 03:45:31;;;;;;;659.97;334.25;;;;;;;;;;5023418;28;20386;-55
2023/11/05 03:47:56;;;;;;;836.78;399.77;;;;;;;;;;5023664;28;20041;-56
2023/11/05 03:50:22;;;;;;;662.72;343.92;;;;;;;;;;5020297;28;21901;-55
2023/11/05 03:52:47;;;;;;;654.47;337.90;;;;;;;;;;5020813;28;20036;-55
2023/11/05 03:55:12;;;;;;;790.00;350.87;;;;;;;;;;5017239;28;20036;-54
2023/11/05 03:57:37;;;;;;;679.63;342.77;;;;;;;;;;5019970;28;20253;-55
2023/11/05 04:00:06;;;;;;;675.05;353.05;;;;;;;;;;5016838;28;20287;-55
2023/11/05 04:02:31;;;;;;;673.50;354.80;;;;;;;;;;5018558;28;20536;-55
2023/11/05 04:04:57;;;;;;;667.35;353.25;;;;;;;;;;5018347;28;20033;-54
2023/11/05 04:07:22;;;;;;;698.53;362.83;;;;;;;;;;5017755;28;20050;-55
2023/11/05 04:09:48;;;;;;;670.35;351.92;;;;;;;;;;5019027;28;20133;-55
2023/11/05 04:12:13;;;;;;;741.83;360.42;;;;;;;;;;5018727;28;20034;-55
2023/11/05 04:14:38;;;;;;;710.17;356.80;;;;;;;;;;5019039;28;20059;-55
2023/11/05 04:17:04;;;;;;;735.25;364.50;;;;;;;;;;5018079;28;20042;-55
2023/11/05 04:19:29;;;;;;;680.33;365.30;;;;;;;;;;5019962;28;20469;-55
2023/11/05 04:21:54;;;;;;;698.35;367.17;;;;;;;;;;5019384;28;20033;-55
2023/11/05 04:24:20;;;;;;;695.30;361.23;;;;;;;;;;5018270;28;22232;-55
2023/11/05 04:26:45;;;;;;;679.13;373.30;;;;;;;;;;5018857;28;20120;-54
2023/11/05 04:29:11;;;;;;;764.90;374.38;;;;;;;;;;5017959;28;20116;-55
2023/11/05 04:31:36;;;;;;;725.83;373.92;;;;;;;;;;5018797;28;20033;-55
2023/11/05 04:34:02;;;;;;;691.17;367.35;;;;;;;;;;5017269;28;20030;-55
2023/11/05 04:36:27;;;;;;;706.58;369.45;;;;;;;;;;5017573;28;20418;-55
2023/11/05 04:38:53;;;;;;;703.10;371.95;;;;;;;;;;5018748;28;20425;-55
2023/11/05 04:41:22;;;;;;;880.78;427.00;;;;;;;;;;5017783;28;20064;-55
2023/11/05 04:43:47;;;;;;;699.95;368.20;;;;;;;;;;5018424;28;20026;-55
2023/11/05 04:46:12;;;;;;;736.13;371.63;;;;;;;;;;5018233;28;20041;-55
2023/11/05 04:48:38;;;;;;;721.85;373.10;;;;;;;;;;5018628;28;20030;-55
2023/11/05 04:51:06;;;;;;;686.08;368.98;;;;;;;;;;5018412;28;20543;-55
2023/11/05 04:53:32;;;;;;;671.90;365.65;;;;;;;;;;5018536;28;20060;-56
2023/11/05 04:55:57;;;;;;;710.22;371.60;;;;;;;;;;5017820;28;20633;-56
2023/11/05 04:58:23;;;;;;;765.35;375.73;;;;;;;;;;5015138;28;20128;-57
2023/11/05 05:00:48;;;;;;;694.53;368.73;;;;;;;;;;5017470;28;20059;-56
2023/11/05 05:03:13;;;;;;;709.50;378.73;;;;;;;;;;5017688;28;20602;-56
2023/11/05 05:05:38;;;;;;;705.97;386.03;;;;;;;;;;5015448;28;20646;-56
2023/11/05 05:08:04;;;;;;;664.37;381.93;;;;;;;;;;5017454;28;20268;-55
2023/11/05 05:10:29;;;;;;;736.78;404.05;;;;;;;;;;5016484;28;20276;-56
2023/11/05 05:12:54;;;;;;;740.47;413.27;;;;;;;;;;5018655;28;20025;-56
2023/11/05 05:15:19;;;;;;;741.33;389.67;;;;;;;;;;5016020;28;20101;-55
2023/11/05 05:17:46;;;;;;;676.15;390.00;;;;;;;;;;5017597;28;20347;-55
2023/11/05 05:20:11;;;;;;;782.58;399.90;;;;;;;;;;5017932;28;20508;-56
2023/11/05 05:22:36;;;;;;;755.22;399.95;;;;;;;;;;5016133;28;20087;-55
2023/11/05 05:25:02;;;;;;;725.83;395.30;;;;;;;;;;5016886;28;20045;-55
2023/11/05 05:27:27;;;;;;;695.08;395.98;;;;;;;;;;5017220;28;20034;-55
2023/11/05 05:29:52;;;;;;;746.97;396.42;;;;;;;;;;5017712;28;20636;-55
2023/11/05 05:32:18;;;;;;;792.50;398.38;;;;;;;;;;5016321;28;20075;-56
2023/11/05 05:34:43;;;;;;;739.67;441.77;;;;;;;;;;5018348;28;20033;-57
2023/11/05 05:37:08;;;;;;;838.45;450.35;;;;;;;;;;5015432;28;20459;-59
2023/11/05 05:39:33;;;;;;;789.67;452.63;;;;;;;;;;5014996;28;20071;-57
2023/11/05 05:42:02;;;;;;;728.05;447.20;;;;;;;;;;5015933;28;20038;-57
2023/11/05 05:44:28;;;;;;;791.95;452.90;;;;;;;;;;5016471;28;20029;-57
2023/11/05 05:46:53;;;;;;;923.40;506.52;;;;;;;;;;5016505;28;20105;-58
2023/11/05 05:49:18;;;;;;;791.13;440.93;;;;;;;;;;5017537;28;20029;-57
2023/11/05 05:51:43;;;;;;;855.07;484.30;;;;;;;;;;5016898;28;20327;-57
2023/11/05 05:54:09;;;;;;;873.33;451.20;;;;;;;;;;5014726;28;20268;-57
2023/11/05 05:56:34;;;;;;;753.80;443.30;;;;;;;;;;5015866;28;20413;-57
2023/11/05 05:58:59;;;;;;;736.85;445.25;;;;;;;;;;5018899;28;20026;-57
2023/11/05 06:01:24;;;;;;;803.85;450.17;;;;;;;;;;5015667;28;20064;-57
2023/11/05 06:03:50;;;;;;;799.65;458.45;;;;;;;;;;5014925;28;20125;-58
2023/11/05 06:06:15;;;;;;;840.33;452.30;;;;;;;;;;5013996;28;20520;-57
2023/11/05 06:08:41;;;;;;;705.58;447.30;;;;;;;;;;5016518;28;20712;-57
2023/11/05 06:11:07;;;;;;;812.78;460.15;;;;;;;;;;5015013;28;20595;-57
2023/11/05 06:13:32;;;;;;;763.60;450.38;;;;;;;;;;5012606;28;21488;-56
2023/11/05 06:15:57;;;;;;;716.90;444.63;;;;;;;;;;5014154;28;20580;-57
2023/11/05 06:18:22;;;;;;;797.60;453.65;;;;;;;;;;5013225;28;20478;-57
2023/11/05 06:20:49;;;;;;;790.50;460.70;;;;;;;;;;5014735;28;20047;-57
2023/11/05 06:23:15;;;;;;;826.28;458.45;;;;;;;;;;5013922;28;20025;-57
2023/11/05 06:25:40;;;;;;;765.15;451.38;;;;;;;;;;5014257;28;20044;-56
2023/11/05 06:28:05;;;;;;;813.25;458.60;;;;;;;;;;5014699;28;20033;-57
2023/11/05 06:30:31;;;;;;;714.08;453.75;;;;;;;;;;5014557;28;20080;-56
2023/11/05 06:32:56;;;;;;;717.88;450.10;;;;;;;;;;5016621;28;20025;-57
2023/11/05 06:35:21;;;;;;;888.95;465.95;;;;;;;;;;5013661;28;20026;-56
2023/11/05 06:37:46;;;;;;;758.40;458.40;;;;;;;;;;5016253;28;20564;-56
2023/11/05 06:40:12;;;;;;;795.10;459.98;;;;;;;;;;5015635;28;20689;-57
2023/11/05 06:42:37;;;;;;;755.00;450.40;;;;;;;;;;5015387;28;20028;-57
2023/11/05 06:45:02;;;;;;;792.28;461.30;;;;;;;;;;5016031;28;20017;-57
2023/11/05 06:47:28;;;;;;;756.33;455.45;;;;;;;;;;5014854;28;20296;-57
2023/11/05 06:49:53;;;;;;;729.47;420.70;;;;;;;;;;5016582;28;20100;-57
2023/11/05 06:52:18;;;;;;;877.88;432.25;;;;;;;;;;5013695;28;20418;-58
2023/11/05 06:54:44;;;;;;;768.65;431.35;;;;;;;;;;5014817;28;20029;-57
2023/11/05 06:57:09;;;;;;;764.15;439.73;;;;;;;;;;5015149;28;20034;-56
2023/11/05 06:59:35;;;;;;;785.40;432.77;;;;;;;;;;5015063;28;20143;-57
2023/11/05 07:02:00;;;;;;;715.90;428.58;;;;;;;;;;5016321;28;20084;-57
2023/11/05 07:04:25;;;;;;;779.05;433.70;;;;;;;;;;5015068;28;20017;-57
2023/11/05 07:06:51;;;;;;;788.97;437.58;;;;;;;;;;5014760;28;20175;-56
2023/11/05 07:09:16;;;;;;;844.88;447.00;;;;;;;;;;5012854;28;20493;-57
2023/11/05 07:11:41;;;;;;;743.55;438.63;;;;;;;;;;5014884;28;20041;-57
2023/11/05 07:14:07;;;;;;;839.00;440.88;;;;;;;;;;5015352;28;20649;-57
2023/11/05 07:16:32;;;;;;;783.67;435.20;;;;;;;;;;5014119;28;20468;-57
2023/11/05 07:18:58;;;;;;;722.72;438.15;;;;;;;;;;5017221;28;20112;-57
2023/11/05 07:21:23;;;;;;;896.25;477.73;;;;;;;;;;5014784;28;20041;-57
2023/11/05 07:23:48;;;;;;;748.08;439.17;;;;;;;;;;5015732;28;20017;-56
2023/11/05 07:26:13;;;;;;;774.47;431.17;;;;;;;;;;5013886;28;20048;-56
2023/11/05 07:28:39;;;;;;;793.33;444.35;;;;;;;;;;5017656;28;20029;-57
2023/11/05 07:31:04;;;;;;;728.17;439.02;;;;;;;;;;5018043;28;20040;-57
2023/11/05 07:33:29;;;;;;;808.10;444.48;;;;;;;;;;5018961;28;20489;-55
2023/11/05 07:35:55;;;;;;;811.38;450.48;;;;;;;;;;5017611;28;20272;-55
2023/11/05 07:38:21;;;;;;;840.25;448.27;;;;;;;;;;5017844;28;20426;-57
2023/11/05 07:40:47;;;;;;;803.38;443.25;;;;;;;;;;5017237;28;20491;-56
2023/11/05 07:43:12;;;;;;;791.88;441.90;;;;;;;;;;5016595;28;20580;-58
2023/11/05 07:45:37;;;;;;;780.63;436.55;;;;;;;;;;5017567;28;20037;-57
2023/11/05 07:48:03;;;;;;;808.75;442.85;;;;;;;;;;5019025;28;20025;-57
2023/11/05 07:50:28;;;;;;;816.42;446.23;;;;;;;;;;5018456;28;20045;-58
2023/11/05 07:52:54;;;;;;;765.88;433.38;;;;;;;;;;5019054;28;20032;-57
2023/11/05 07:55:20;;;;;;;856.50;432.08;;;;;;;;;;5016182;28;20084;-58
2023/11/05 07:57:45;;;;;;;813.47;428.08;;;;;;;;;;5017969;28;20328;-57
2023/11/05 08:00:17;;;;;;;806.53;400.92;;;;;;;;;;5017981;28;20100;-57
2023/11/05 08:02:43;;;;;;;812.35;409.90;;;;;;;;;;5017667;28;20112;-56
2023/11/05 08:05:08;;;;;;;744.75;387.55;;;;;;;;;;5018042;28;20222;-57
2023/11/05 08:07:34;;;;;;;754.00;396.00;;;;;;;;;;5017489;28;20048;-57
2023/11/05 08:09:59;;;;;;;791.83;401.90;;;;;;;;;;5017881;28;20032;-57
2023/11/05 08:12:24;;;;;;;771.72;399.52;;;;;;;;;;5016204;28;20034;-58
2023/11/05 08:14:49;;;;;;;782.08;396.83;;;;;;;;;;5017936;28;20091;-57
2023/11/05 08:17:15;;;;;;;807.37;402.30;;;;;;;;;;5015466;28;20588;-57
2023/11/05 08:19:40;;;;;;;737.85;397.85;;;;;;;;;;5016745;28;20805;-57
2023/11/05 08:22:05;;;;;;;774.70;401.67;;;;;;;;;;5015348;28;20057;-57
2023/11/05 08:24:31;;;;;;;922.92;462.75;;;;;;;;;;5018282;28;20108;-56
2023/11/05 08:26:56;;;;;;;823.35;440.00;;;;;;;;;;5018288;28;20033;-58
2023/11/05 08:29:21;;;;;;;966.15;424.73;;;;;;;;;;5017430;28;20117;-57
2023/11/05 08:31:47;;;;;;;869.38;439.35;;;;;;;;;;5018200;28;20183;-57
2023/11/05 08:34:12;;;;;;;776.67;409.70;;;;;;;;;;5016871;28;20159;-58
2023/11/05 08:36:37;;;;;;;853.67;420.10;;;;;;;;;;5016207;28;20182;-57
2023/11/05 08:39:04;;;;;;;726.03;402.35;;;;;;;;;;5018522;28;20346;-56
2023/11/05 08:41:29;;;;;;;752.08;408.55;;;;;;;;;;5018506;28;20121;-57
2023/11/05 08:43:55;;;;;;;805.22;411.27;;;;;;;;;;5016321;28;20113;-57
2023/11/05 08:46:20;;;;;;;758.95;408.27;;;;;;;;;;5017113;28;20124;-58
2023/11/05 08:48:45;;;;;;;716.78;404.35;;;;;;;;;;5017561;28;20436;-58
2023/11/05 08:51:11;;;;;;;834.58;414.05;;;;;;;;;;5017603;28;20026;-58
2023/11/05 08:53:36;;;;;;;722.42;402.75;;;;;;;;;;5017479;28;20028;-57
2023/11/05 08:56:01;;;;;;;815.95;411.13;;;;;;;;;;5016089;28;20850;-56
2023/11/05 08:58:27;;;;;;;809.08;398.25;;;;;;;;;;5014406;28;20036;-57
2023/11/05 09:00:56;;;;;;;737.55;396.75;;;;;;;;;;5017703;28;20137;-57
2023/11/05 09:03:22;;;;;;;844.67;402.73;;;;;;;;;;5016534;28;20025;-57
2023/11/05 09:05:47;;;;;;;729.65;397.42;;;;;;;;;;5017405;28;20087;-58
2023/11/05 09:08:14;;;;;;;701.03;398.45;;;;;;;;;;5017939;28;20515;-58
2023/11/05 09:10:39;;;;;;;789.90;411.88;;;;;;;;;;5017250;28;20038;-58
2023/11/05 09:13:05;;;;;;;734.20;409.33;;;;;;;;;;5016246;28;20027;-56
2023/11/05 09:15:30;;;;;;;751.60;407.52;;;;;;;;;;5014811;28;20107;-58
2023/11/05 09:17:56;;;;;;;837.65;418.48;;;;;;;;;;5015504;28;20056;-57
2023/11/05 09:20:21;;;;;;;841.17;418.70;;;;;;;;;;5013580;28;20396;-58
2023/11/05 09:22:47;;;;;;;738.00;405.80;;;;;;;;;;5016663;28;20022;-58
2023/11/05 09:25:12;;;;;;;876.28;418.27;;;;;;;;;;5016894;28;20046;-57
2023/11/05 09:27:38;;;;;;;703.50;408.65;;;;;;;;;;5017875;28;20075;-58
2023/11/05 09:30:10;;;;;;;793.88;416.33;;;;;;;;;;5014955;28;20481;-58
2023/11/05 09:32:35;;;;;;;711.13;415.92;;;;;;;;;;5015718;28;20115;-59
2023/11/05 09:35:00;;;;;;;751.25;416.25;;;;;;;;;;5017216;28;20080;-57
2023/11/05 09:37:26;;;;;;;869.58;427.00;;;;;;;;;;5013895;28;20477;-57
2023/11/05 09:39:51;;;;;;;762.97;421.27;;;;;;;;;;5016127;28;20130;-58
2023/11/05 09:42:19;;;;;;;779.33;421.42;;;;;;;;;;5016382;28;20080;-57
2023/11/05 09:44:45;;;;;;;791.45;420.58;;;;;;;;;;5017717;28;20032;-57
2023/11/05 09:47:11;;;;;;;758.75;421.17;;;;;;;;;;5015655;28;20029;-57
2023/11/05 09:49:40;;;;;;;767.95;425.92;;;;;;;;;;5015993;28;20022;-57
2023/11/05 09:52:09;;;;;;;766.67;435.10;;;;;;;;;;5016344;28;20037;-57
2023/11/05 09:54:40;;;;;;;745.28;423.17;;;;;;;;;;5014820;28;20663;-57
2023/11/05 09:57:05;;;;;;;825.90;426.35;;;;;;;;;;5015631;28;20038;-57
2023/11/05 09:59:30;;;;;;;863.55;438.42;;;;;;;;;;5015517;28;20072;-57
2023/11/05 10:01:56;;;;;;;822.72;439.33;;;;;;;;;;5015215;28;20483;-58
2023/11/05 10:04:21;;;;;;;891.40;427.02;;;;;;;;;;5013196;28;20044;-57
2023/11/05 10:06:48;;;;;;;813.95;427.77;;;;;;;;;;5013324;28;20393;-58
2023/11/05 10:09:13;;;;;;;874.63;438.15;;;;;;;;;;5014317;28;20049;-56
2023/11/05 10:11:42;;;;;;;826.28;430.40;;;;;;;;;;5013575;28;20045;-57
2023/11/05 10:14:08;;;;;;;814.85;428.38;;;;;;;;;;5016818;28;20469;-58
2023/11/05 10:16:37;;;;;;;903.42;432.55;;;;;;;;;;5013986;28;20413;-57
2023/11/05 10:19:02;;;;;;;747.40;423.45;;;;;;;;;;5016285;28;20032;-57
2023/11/05 10:21:35;;;;;;;811.25;425.40;;;;;;;;;;5014855;28;20041;-58
2023/11/05 10:24:00;;;;;;;817.88;426.85;;;;;;;;;;5015877;28;20057;-58
2023/11/05 10:26:33;;;;;;;820.22;426.95;;;;;;;;;;5014095;28;20538;-58
2023/11/05 10:28:58;;;;;;;845.03;428.30;;;;;;;;;;5016029;28;20527;-58
2023/11/05 10:31:25;;;;;;;791.58;421.38;;;;;;;;;;5015405;28;20107;-58
2023/11/05 10:33:51;;;;;;;764.95;424.50;;;;;;;;;;5016073;28;20029;-57
2023/11/05 10:36:16;;;;;;;899.42;433.58;;;;;;;;;;5015338;28;20052;-58
2023/11/05 10:38:42;;;;;;;730.90;417.77;;;;;;;;;;5015933;28;20034;-57
2023/11/05 10:41:08;;;;;;;717.15;415.23;;;;;;;;;;5018549;28;20512;-57
2023/11/05 10:43:33;;;;;;;863.70;428.17;;;;;;;;;;5017254;28;20038;-57
2023/11/05 10:45:59;;;;;;;714.00;420.17;;;;;;;;;;5018165;28;20040;-57
2023/11/05 10:48:24;;;;;;;801.10;428.25;;;;;;;;;;5016896;28;20030;-57
2023/11/05 10:50:51;;;;;;;754.30;395.02;;;;;;;;;;5017186;28;20048;-57
2023/11/05 10:53:17;;;;;;;751.97;411.02;;;;;;;;;;5017950;28;20072;-58
2023/11/05 10:55:43;;;;;;;777.85;464.98;;;;;;;;;;5014931;28;20038;-58
2023/11/05 10:58:08;;;;;;;814.60;465.58;;;;;;;;;;5016716;28;20070;-58
2023/11/05 11:00:34;;;;;;;880.20;466.75;;;;;;;;;;5016141;28;20397;-58
2023/11/05 11:03:01;;;;;;;835.80;461.20;;;;;;;;;;5020959;28;20429;-58
2023/11/05 11:05:41;;;;;;;826.90;458.05;;;;;;;;;;5020692;28;20763;-57
2023/11/05 11:08:10;;;;;;;800.85;452.65;;;;;;;;;;5021008;28;20017;-58
2023/11/05 11:10:39;;;;;;;898.90;469.02;;;;;;;;;;5020108;28;20041;-57
2023/11/05 11:13:10;;;;;;;746.42;431.85;;;;;;;;;;5022772;28;20029;-58
2023/11/05 11:15:36;;;;;;;846.28;443.27;;;;;;;;;;5019334;28;20485;-58
2023/11/05 11:18:02;;;;;;;710.83;414.38;;;;;;;;;;5021720;28;20059;-59
2023/11/05 11:20:30;;;;;;;787.83;416.27;;;;;;;;;;5020525;28;20144;-59
2023/11/05 11:22:59;;;;;;;692.78;396.88;;;;;;;;;;5021668;28;20112;-58
2023/11/05 11:25:26;;;;;;;729.53;402.02;;;;;;;;;;5020833;28;20026;-57
2023/11/05 11:27:52;;;;;;;805.88;419.23;;;;;;;;;;5019433;28;20083;-55
2023/11/05 11:30:17;;;;;;;752.53;381.88;;;;;;;;;;5021585;28;20027;-60
2023/11/05 11:32:43;;;;;;;698.90;369.48;;;;;;;;;;5021237;28;20027;-56
2023/11/05 11:35:08;;;;;;;752.33;375.13;;;;;;;;;;5020643;28;20257;-58
2023/11/05 11:37:34;;;;;;;820.28;379.08;;;;;;;;;;5019151;28;20386;-60
2023/11/05 11:40:00;;;;;;;769.97;379.77;;;;;;;;;;5020958;28;20110;-57
2023/11/05 11:42:26;;;;;;;796.47;381.88;;;;;;;;;;5018192;28;20044;-57
2023/11/05 11:44:51;;;;;;;696.35;378.25;;;;;;;;;;5021629;28;20163;-56
2023/11/05 11:47:16;;;;;;;771.00;404.38;;;;;;;;;;5018100;28;20025;-57
2023/11/05 11:49:43;;;;;;;752.65;394.52;;;;;;;;;;5017862;28;21626;-57
2023/11/05 11:52:09;;;;;;;723.00;392.92;;;;;;;;;;5021264;28;20045;-57
2023/11/05 11:54:34;;;;;;;854.47;406.60;;;;;;;;;;5018336;28;20037;-57
2023/11/05 11:57:00;;;;;;;722.97;434.40;;;;;;;;;;5017824;28;20553;-57
2023/11/05 11:59:25;;;;;;;756.88;435.95;;;;;;;;;;5016816;28;20021;-56
2023/11/05 12:01:50;;;;;;;800.33;440.48;;;;;;;;;;5018509;28;20057;-60
2023/11/05 12:04:17;;;;;;;837.83;449.63;;;;;;;;;;5019840;28;20033;-57
2023/11/05 12:06:44;;;;;;;882.67;444.27;;;;;;;;;;5019929;28;20477;-57
2023/11/05 12:09:20;;;;;;;851.40;444.48;;;;;;;;;;5019453;28;20023;-56
2023/11/05 12:11:46;;;;;;;723.78;440.80;;;;;;;;;;5019656;28;20083;-58
2023/11/05 12:14:12;;;;;;;951.97;470.80;;;;;;;;;;5016646;28;20022;-57
2023/11/05 12:16:37;;;;;;;840.55;441.15;;;;;;;;;;5017076;28;20034;-57
2023/11/05 12:19:05;;;;;;;740.20;430.90;;;;;;;;;;5021219;28;20025;-58
2023/11/05 12:21:31;;;;;;;955.08;448.48;;;;;;;;;;5017701;28;20064;-58
2023/11/05 12:23:56;;;;;;;1022.72;455.25;;;;;;;;;;5020967;28;20026;-57
2023/11/05 12:26:22;;;;;;;774.33;425.40;;;;;;;;;;5017294;28;20042;-56
2023/11/05 12:28:47;;;;;;;802.47;427.20;;;;;;;;;;5015862;28;20018;-59
2023/11/05 12:31:15;;;;;;;769.05;428.13;;;;;;;;;;5018706;28;20607;-56
2023/11/05 12:33:40;;;;;;;847.03;435.50;;;;;;;;;;5019009;28;20021;-57
2023/11/05 12:36:09;;;;;;;788.25;431.10;;;;;;;;;;5018071;28;20231;-58
2023/11/05 12:38:34;;;;;;;814.20;434.80;;;;;;;;;;5017338;28;20029;-56
2023/11/05 12:41:00;;;;;;;779.75;432.00;;;;;;;;;;5018050;28;20098;-56
2023/11/05 12:43:25;;;;;;;758.67;435.27;;;;;;;;;;5018518;28;20036;-56
2023/11/05 12:45:58;;;;;;;754.60;441.45;;;;;;;;;;5018303;28;20038;-56
2023/11/05 12:48:27;;;;;;;787.33;437.10;;;;;;;;;;5018542;28;20037;-56
2023/11/05 12:50:53;;;;;;;741.42;441.23;;;;;;;;;;5019351;28;20056;-56
2023/11/05 12:53:21;;;;;;;780.05;439.88;;;;;;;;;;5019791;28;20029;-57
2023/11/05 12:55:46;;;;;;;762.55;438.63;;;;;;;;;;5018420;28;20160;-55
2023/11/05 12:58:12;;;;;;;866.42;446.50;;;;;;;;;;5009924;28;20425;-56
2023/11/05 13:00:37;;;;;;;898.53;445.73;;;;;;;;;;5013230;28;20041;-59
2023/11/05 13:03:04;;;;;;;807.95;440.75;;;;;;;;;;5018502;28;20022;-59
2023/11/05 13:05:29;;;;;;;863.35;445.58;;;;;;;;;;5013867;28;20091;-59
2023/11/05 13:07:54;;;;;;;828.22;443.02;;;;;;;;;;5017050;28;20045;-56
2023/11/05 13:10:20;;;;;;;762.47;433.17;;;;;;;;;;5015456;28;20411;-56
2023/11/05 13:12:46;;;;;;;862.15;429.27;;;;;;;;;;5016026;28;20085;-56
2023/11/05 13:15:12;;;;;;;842.28;415.38;;;;;;;;;;5015183;28;20573;-56
2023/11/05 13:17:41;;;;;;;793.67;407.40;;;;;;;;;;5014620;28;20371;-56
2023/11/05 13:20:11;;;;;;;797.42;425.10;;;;;;;;;;5015939;28;20038;-58
2023/11/05 13:22:42;;;;;;;949.17;433.05;;;;;;;;;;5013507;28;20040;-55
2023/11/05 13:25:09;;;;;;;731.63;405.80;;;;;;;;;;5015735;28;20025;-56
2023/11/05 13:27:34;;;;;;;865.63;388.88;;;;;;;;;;5012581;28;20048;-57
2023/11/05 13:29:59;;;;;;;671.78;382.67;;;;;;;;;;5016834;28;20025;-56
2023/11/05 13:32:25;;;;;;;676.85;355.85;;;;;;;;;;5013962;28;20525;-56
2023/11/05 13:34:50;;;;;;;816.80;395.55;;;;;;;;;;5012401;28;20036;-56
2023/11/05 13:37:16;;;;;;;819.67;425.90;;;;;;;;;;5015491;28;20071;-56
2023/11/05 13:39:41;;;;;;;911.20;407.23;;;;;;;;;;5015645;28;20519;-55
2023/11/05 13:42:07;;;;;;;824.97;398.05;;;;;;;;;;5013105;28;20034;-57
2023/11/05 13:44:32;;;;;;;808.17;399.15;;;;;;;;;;5015146;28;20048;-57